sensor_id;sensor_type;location;lat;lon;timestamp;pressure;altitude;pressure_sealevel;temperature;humidity
34893;BME280;21106;52.240;20.902;2023-07-24T00:01:21;99257.05;;;23.90;44.93
34893;BME280;21106;52.240;20.902;2023-07-24T00:06:50;99248.00;;;23.88;44.93
34893;BME280;21106;52.240;20.902;2023-07-24T00:11:57;99249.67;;;23.87;45.02
34893;BME280;21106;52.240;20.902;2023-07-24T00:17:03;99260.67;;;23.85;45.05
34893;BME280;21106;52.240;20.902;2023-07-24T00:22:11;99271.81;;;23.83;45.19
34893;BME280;21106;52.240;20.902;2023-07-24T00:27:17;99275.17;;;23.81;45.41
34893;BME280;21106;52.240;20.902;2023-07-24T00:32:26;99268.17;;;23.80;45.52
34893;BME280;21106;52.240;20.902;2023-07-24T00:37:41;99269.70;;;23.76;45.58
34893;BME280;21106;52.240;20.902;2023-07-24T00:42:48;99272.05;;;23.72;45.83
34893;BME280;21106;52.240;20.902;2023-07-24T00:47:54;99275.52;;;23.69;45.99
34893;BME280;21106;52.240;20.902;2023-07-24T00:53:00;99272.14;;;23.66;45.98
34893;BME280;21106;52.240;20.902;2023-07-24T00:58:11;99269.23;;;23.62;46.08
34893;BME280;21106;52.240;20.902;2023-07-24T01:03:17;99266.86;;;23.59;46.16
34893;BME280;21106;52.240;20.902;2023-07-24T01:08:24;99267.88;;;23.53;46.31
34893;BME280;21106;52.240;20.902;2023-07-24T01:13:32;99274.86;;;23.51;46.16
34893;BME280;21106;52.240;20.902;2023-07-24T01:18:42;99278.45;;;23.48;46.05
34893;BME280;21106;52.240;20.902;2023-07-24T01:24:14;99274.79;;;23.46;45.58
34893;BME280;21106;52.240;20.902;2023-07-24T01:29:28;99278.89;;;23.43;45.47
34893;BME280;21106;52.240;20.902;2023-07-24T01:34:35;99281.23;;;23.41;45.45
34893;BME280;21106;52.240;20.902;2023-07-24T01:39:43;99271.05;;;23.39;45.32
34893;BME280;21106;52.240;20.902;2023-07-24T01:44:55;99267.90;;;23.38;45.28
34893;BME280;21106;52.240;20.902;2023-07-24T01:50:02;99269.84;;;23.34;44.97
34893;BME280;21106;52.240;20.902;2023-07-24T01:55:08;99271.23;;;23.33;45.07
34893;BME280;21106;52.240;20.902;2023-07-24T02:00:15;99260.92;;;23.33;44.77
34893;BME280;21106;52.240;20.902;2023-07-24T02:05:21;99254.84;;;23.31;44.56
34893;BME280;21106;52.240;20.902;2023-07-24T02:10:28;99249.44;;;23.30;44.39
34893;BME280;21106;52.240;20.902;2023-07-24T02:15:35;99246.11;;;23.30;44.16
34893;BME280;21106;52.240;20.902;2023-07-24T02:20:48;99239.64;;;23.31;43.80
34893;BME280;21106;52.240;20.902;2023-07-24T02:25:54;99239.75;;;23.33;43.80
34893;BME280;21106;52.240;20.902;2023-07-24T02:31:00;99244.61;;;23.33;43.49
34893;BME280;21106;52.240;20.902;2023-07-24T02:36:06;99240.05;;;23.31;43.51
34893;BME280;21106;52.240;20.902;2023-07-24T02:41:13;99252.21;;;23.27;43.48
34893;BME280;21106;52.240;20.902;2023-07-24T02:46:19;99267.95;;;23.24;43.56
34893;BME280;21106;52.240;20.902;2023-07-24T02:51:26;99263.23;;;23.18;43.66
34893;BME280;21106;52.240;20.902;2023-07-24T02:56:32;99264.03;;;23.15;43.62
34893;BME280;21106;52.240;20.902;2023-07-24T03:01:38;99270.39;;;23.13;43.83
34893;BME280;21106;52.240;20.902;2023-07-24T03:06:45;99273.86;;;23.10;43.98
34893;BME280;21106;52.240;20.902;2023-07-24T03:11:51;99271.73;;;23.08;43.90
34893;BME280;21106;52.240;20.902;2023-07-24T03:16:57;99273.19;;;23.08;43.95
34893;BME280;21106;52.240;20.902;2023-07-24T03:22:04;99268.84;;;23.09;44.13
34893;BME280;21106;52.240;20.902;2023-07-24T03:27:10;99273.61;;;23.08;43.98
34893;BME280;21106;52.240;20.902;2023-07-24T03:32:16;99276.17;;;23.08;43.95
34893;BME280;21106;52.240;20.902;2023-07-24T03:37:23;99282.90;;;23.07;43.89
34893;BME280;21106;52.240;20.902;2023-07-24T03:42:30;99283.98;;;23.07;43.83
34893;BME280;21106;52.240;20.902;2023-07-24T03:47:37;99289.29;;;23.08;44.05
34893;BME280;21106;52.240;20.902;2023-07-24T03:52:43;99288.65;;;23.09;43.97
34893;BME280;21106;52.240;20.902;2023-07-24T03:57:49;99286.33;;;23.09;44.03
34893;BME280;21106;52.240;20.902;2023-07-24T04:02:56;99292.80;;;23.11;44.11
34893;BME280;21106;52.240;20.902;2023-07-24T04:08:02;99292.48;;;23.12;44.27
34893;BME280;21106;52.240;20.902;2023-07-24T04:13:08;99291.61;;;23.12;44.13
34893;BME280;21106;52.240;20.902;2023-07-24T04:18:15;99289.02;;;23.12;44.18
34893;BME280;21106;52.240;20.902;2023-07-24T04:23:21;99288.69;;;23.16;44.26
34893;BME280;21106;52.240;20.902;2023-07-24T04:28:27;99295.70;;;23.24;44.18
34893;BME280;21106;52.240;20.902;2023-07-24T04:33:34;99296.39;;;23.33;44.01
34893;BME280;21106;52.240;20.902;2023-07-24T04:38:40;99292.08;;;23.46;44.09
34893;BME280;21106;52.240;20.902;2023-07-24T04:43:46;99289.59;;;23.55;43.84
34893;BME280;21106;52.240;20.902;2023-07-24T04:48:52;99289.09;;;23.63;43.78
34893;BME280;21106;52.240;20.902;2023-07-24T04:53:58;99287.67;;;23.67;43.75
34893;BME280;21106;52.240;20.902;2023-07-24T04:59:05;99285.64;;;23.79;43.90
34893;BME280;21106;52.240;20.902;2023-07-24T05:04:11;99296.36;;;23.94;43.59
34893;BME280;21106;52.240;20.902;2023-07-24T05:09:17;99304.02;;;24.13;43.54
34893;BME280;21106;52.240;20.902;2023-07-24T05:14:25;99298.58;;;24.32;43.09
34893;BME280;21106;52.240;20.902;2023-07-24T05:19:31;99293.97;;;24.39;42.93
34893;BME280;21106;52.240;20.902;2023-07-24T05:24:37;99292.81;;;24.34;42.65
34893;BME280;21106;52.240;20.902;2023-07-24T05:29:43;99290.86;;;24.30;42.84
34893;BME280;21106;52.240;20.902;2023-07-24T05:34:51;99297.26;;;24.25;42.87
34893;BME280;21106;52.240;20.902;2023-07-24T05:39:57;99299.60;;;24.22;42.91
34893;BME280;21106;52.240;20.902;2023-07-24T05:45:05;99306.09;;;24.21;43.11
34893;BME280;21106;52.240;20.902;2023-07-24T05:50:11;99310.38;;;24.16;43.00
34893;BME280;21106;52.240;20.902;2023-07-24T05:55:19;99312.79;;;24.11;43.08
34893;BME280;21106;52.240;20.902;2023-07-24T06:00:25;99319.16;;;24.09;43.31
34893;BME280;21106;52.240;20.902;2023-07-24T06:05:31;99317.33;;;24.06;43.29
34893;BME280;21106;52.240;20.902;2023-07-24T06:10:37;99324.44;;;24.07;43.28
34893;BME280;21106;52.240;20.902;2023-07-24T06:15:44;99322.81;;;24.06;43.35
34893;BME280;21106;52.240;20.902;2023-07-24T06:20:54;99321.57;;;24.03;43.40
34893;BME280;21106;52.240;20.902;2023-07-24T06:26:00;99319.58;;;24.01;43.45
34893;BME280;21106;52.240;20.902;2023-07-24T06:31:06;99317.96;;;24.02;43.67
34893;BME280;21106;52.240;20.902;2023-07-24T06:36:12;99315.19;;;24.07;43.59
34893;BME280;21106;52.240;20.902;2023-07-24T06:41:19;99317.77;;;24.13;43.51
34893;BME280;21106;52.240;20.902;2023-07-24T06:46:26;99317.10;;;24.19;43.44
34893;BME280;21106;52.240;20.902;2023-07-24T06:51:33;99310.71;;;24.21;43.27
34893;BME280;21106;52.240;20.902;2023-07-24T06:56:39;99325.86;;;24.24;43.48
34893;BME280;21106;52.240;20.902;2023-07-24T07:01:45;99321.58;;;24.29;43.49
34893;BME280;21106;52.240;20.902;2023-07-24T07:06:51;99312.90;;;24.31;43.60
34893;BME280;21106;52.240;20.902;2023-07-24T07:11:58;99311.39;;;24.42;43.76
34893;BME280;21106;52.240;20.902;2023-07-24T07:17:04;99309.44;;;24.62;43.76
34893;BME280;21106;52.240;20.902;2023-07-24T07:22:10;99303.83;;;24.87;43.36
34893;BME280;21106;52.240;20.902;2023-07-24T07:27:17;99305.08;;;25.07;42.98
34893;BME280;21106;52.240;20.902;2023-07-24T07:32:23;99299.67;;;25.20;42.43
34893;BME280;21106;52.240;20.902;2023-07-24T07:37:29;99302.34;;;25.32;42.09
34893;BME280;21106;52.240;20.902;2023-07-24T07:42:36;99300.95;;;25.45;41.88
34893;BME280;21106;52.240;20.902;2023-07-24T07:47:42;99291.98;;;25.59;41.77
34893;BME280;21106;52.240;20.902;2023-07-24T07:52:52;99294.05;;;25.67;41.64
34893;BME280;21106;52.240;20.902;2023-07-24T07:57:58;99300.98;;;25.77;41.37
34893;BME280;21106;52.240;20.902;2023-07-24T08:03:04;99300.02;;;25.92;40.91
34893;BME280;21106;52.240;20.902;2023-07-24T08:08:10;99297.48;;;26.01;40.62
34893;BME280;21106;52.240;20.902;2023-07-24T08:13:17;99299.45;;;26.05;40.44
34893;BME280;21106;52.240;20.902;2023-07-24T08:18:23;99299.52;;;26.07;40.35
34893;BME280;21106;52.240;20.902;2023-07-24T08:23:29;99304.95;;;26.12;40.25
34893;BME280;21106;52.240;20.902;2023-07-24T08:28:35;99301.55;;;26.18;40.20
34893;BME280;21106;52.240;20.902;2023-07-24T08:33:42;99295.64;;;26.28;40.38
34893;BME280;21106;52.240;20.902;2023-07-24T08:38:48;99291.02;;;26.37;40.28
34893;BME280;21106;52.240;20.902;2023-07-24T08:43:54;99283.85;;;26.52;40.03
34893;BME280;21106;52.240;20.902;2023-07-24T08:49:01;99287.48;;;26.66;39.84
34893;BME280;21106;52.240;20.902;2023-07-24T08:54:08;99288.45;;;26.80;39.71
34893;BME280;21106;52.240;20.902;2023-07-24T08:59:14;99283.21;;;26.92;39.38
34893;BME280;21106;52.240;20.902;2023-07-24T09:04:20;99282.06;;;26.94;39.20
34893;BME280;21106;52.240;20.902;2023-07-24T09:09:29;99274.70;;;26.98;39.07
34893;BME280;21106;52.240;20.902;2023-07-24T09:14:36;99264.14;;;27.09;39.13
34893;BME280;21106;52.240;20.902;2023-07-24T09:19:44;99252.58;;;27.26;39.12
34893;BME280;21106;52.240;20.902;2023-07-24T09:24:52;99258.84;;;27.42;38.77
34893;BME280;21106;52.240;20.902;2023-07-24T09:29:58;99255.57;;;27.59;38.84
34893;BME280;21106;52.240;20.902;2023-07-24T09:35:15;99252.05;;;27.72;38.52
34893;BME280;21106;52.240;20.902;2023-07-24T09:40:21;99251.56;;;27.80;38.37
34893;BME280;21106;52.240;20.902;2023-07-24T09:45:28;99246.27;;;27.81;38.13
34893;BME280;21106;52.240;20.902;2023-07-24T09:50:34;99238.92;;;27.85;38.07
34893;BME280;21106;52.240;20.902;2023-07-24T09:55:53;99222.01;;;27.90;37.87
34893;BME280;21106;52.240;20.902;2023-07-24T10:01:06;99216.48;;;27.94;37.61
34893;BME280;21106;52.240;20.902;2023-07-24T10:06:13;99210.11;;;28.01;38.02
34893;BME280;21106;52.240;20.902;2023-07-24T10:11:23;99203.73;;;28.11;37.83
34893;BME280;21106;52.240;20.902;2023-07-24T10:16:30;99193.36;;;28.18;37.94
34893;BME280;21106;52.240;20.902;2023-07-24T10:21:36;99191.54;;;28.20;37.63
34893;BME280;21106;52.240;20.902;2023-07-24T10:26:42;99185.85;;;28.21;37.44
34893;BME280;21106;52.240;20.902;2023-07-24T10:31:53;99182.95;;;28.23;37.46
34893;BME280;21106;52.240;20.902;2023-07-24T10:37:07;99181.31;;;28.26;37.02
34893;BME280;21106;52.240;20.902;2023-07-24T10:42:22;99168.59;;;28.23;36.71
34893;BME280;21106;52.240;20.902;2023-07-24T10:47:28;99164.01;;;28.21;37.04
34893;BME280;21106;52.240;20.902;2023-07-24T10:52:35;99155.23;;;28.21;36.59
34893;BME280;21106;52.240;20.902;2023-07-24T10:57:41;99143.48;;;28.12;36.63
34893;BME280;21106;52.240;20.902;2023-07-24T11:02:47;99137.46;;;28.04;36.91
34893;BME280;21106;52.240;20.902;2023-07-24T11:07:55;99132.88;;;28.13;37.34
34893;BME280;21106;52.240;20.902;2023-07-24T11:13:01;99130.27;;;28.22;36.67
34893;BME280;21106;52.240;20.902;2023-07-24T11:18:07;99118.06;;;28.30;36.28
34893;BME280;21106;52.240;20.902;2023-07-24T11:23:24;99118.14;;;28.28;35.66
34893;BME280;21106;52.240;20.902;2023-07-24T11:28:39;99107.54;;;28.26;35.54
34893;BME280;21106;52.240;20.902;2023-07-24T11:33:48;99102.23;;;28.33;35.25
34893;BME280;21106;52.240;20.902;2023-07-24T11:38:56;99103.23;;;28.39;35.52
34893;BME280;21106;52.240;20.902;2023-07-24T11:44:02;99092.81;;;28.47;35.49
34893;BME280;21106;52.240;20.902;2023-07-24T11:49:09;99085.50;;;28.58;36.17
34893;BME280;21106;52.240;20.902;2023-07-24T11:54:14;99077.46;;;28.63;36.67
34893;BME280;21106;52.240;20.902;2023-07-24T11:59:22;99069.75;;;28.63;36.15
34893;BME280;21106;52.240;20.902;2023-07-24T12:04:30;99073.31;;;28.59;36.47
34893;BME280;21106;52.240;20.902;2023-07-24T12:09:36;99069.69;;;28.54;36.51
34893;BME280;21106;52.240;20.902;2023-07-24T12:14:42;99063.47;;;28.50;36.99
34893;BME280;21106;52.240;20.902;2023-07-24T12:19:48;99048.45;;;28.50;37.43
34893;BME280;21106;52.240;20.902;2023-07-24T12:24:55;99043.35;;;28.51;36.75
34893;BME280;21106;52.240;20.902;2023-07-24T12:30:02;99041.48;;;28.53;36.49
34893;BME280;21106;52.240;20.902;2023-07-24T12:35:09;99033.13;;;28.54;36.47
34893;BME280;21106;52.240;20.902;2023-07-24T12:40:15;99020.23;;;28.56;36.45
34893;BME280;21106;52.240;20.902;2023-07-24T12:45:22;99017.88;;;28.62;36.31
34893;BME280;21106;52.240;20.902;2023-07-24T12:50:28;99012.66;;;28.72;35.94
34893;BME280;21106;52.240;20.902;2023-07-24T12:55:34;98996.30;;;28.82;35.70
34893;BME280;21106;52.240;20.902;2023-07-24T13:00:40;98996.13;;;28.91;35.45
34893;BME280;21106;52.240;20.902;2023-07-24T13:05:47;98988.86;;;28.98;35.39
34893;BME280;21106;52.240;20.902;2023-07-24T13:10:53;98977.16;;;29.07;35.22
34893;BME280;21106;52.240;20.902;2023-07-24T13:15:59;98966.75;;;29.15;34.87
34893;BME280;21106;52.240;20.902;2023-07-24T13:21:05;98955.19;;;29.24;34.68
34893;BME280;21106;52.240;20.902;2023-07-24T13:26:13;98950.05;;;29.28;34.49
34893;BME280;21106;52.240;20.902;2023-07-24T13:31:20;98943.71;;;29.35;34.52
34893;BME280;21106;52.240;20.902;2023-07-24T13:36:27;98944.60;;;29.44;34.21
34893;BME280;21106;52.240;20.902;2023-07-24T13:41:33;98936.89;;;29.48;33.61
34893;BME280;21106;52.240;20.902;2023-07-24T13:46:41;98933.34;;;29.52;33.33
34893;BME280;21106;52.240;20.902;2023-07-24T13:51:47;98927.34;;;29.62;33.29
34893;BME280;21106;52.240;20.902;2023-07-24T13:56:54;98907.52;;;29.73;32.32
34893;BME280;21106;52.240;20.902;2023-07-24T14:02:00;98904.14;;;29.80;32.16
34893;BME280;21106;52.240;20.902;2023-07-24T14:07:06;98893.39;;;29.83;32.08
34893;BME280;21106;52.240;20.902;2023-07-24T14:12:12;98894.73;;;29.85;31.93
34893;BME280;21106;52.240;20.902;2023-07-24T14:17:19;98895.15;;;29.92;31.92
34893;BME280;21106;52.240;20.902;2023-07-24T14:22:25;98891.69;;;29.99;32.07
34893;BME280;21106;52.240;20.902;2023-07-24T14:27:32;98887.80;;;30.00;31.91
34893;BME280;21106;52.240;20.902;2023-07-24T14:32:38;98880.01;;;30.02;31.78
34893;BME280;21106;52.240;20.902;2023-07-24T14:37:44;98874.27;;;30.04;31.71
34893;BME280;21106;52.240;20.902;2023-07-24T14:42:51;98873.84;;;30.02;31.64
34893;BME280;21106;52.240;20.902;2023-07-24T14:47:57;98865.39;;;30.03;32.14
34893;BME280;21106;52.240;20.902;2023-07-24T14:53:04;98852.15;;;30.01;32.90
34893;BME280;21106;52.240;20.902;2023-07-24T14:58:10;98845.98;;;29.97;32.68
34893;BME280;21106;52.240;20.902;2023-07-24T15:03:16;98836.40;;;29.91;32.59
34893;BME280;21106;52.240;20.902;2023-07-24T15:08:22;98827.89;;;29.90;32.76
34893;BME280;21106;52.240;20.902;2023-07-24T15:13:29;98824.91;;;29.89;33.24
34893;BME280;21106;52.240;20.902;2023-07-24T15:18:35;98820.15;;;29.87;33.25
34893;BME280;21106;52.240;20.902;2023-07-24T15:23:41;98820.35;;;29.91;33.79
34893;BME280;21106;52.240;20.902;2023-07-24T15:28:48;98820.84;;;29.93;33.42
34893;BME280;21106;52.240;20.902;2023-07-24T15:33:54;98814.06;;;29.96;33.03
34893;BME280;21106;52.240;20.902;2023-07-24T15:39:00;98810.59;;;29.96;32.72
34893;BME280;21106;52.240;20.902;2023-07-24T15:44:06;98801.91;;;29.95;32.90
34893;BME280;21106;52.240;20.902;2023-07-24T15:49:13;98789.20;;;29.96;33.04
34893;BME280;21106;52.240;20.902;2023-07-24T15:54:19;98789.71;;;29.96;33.28
34893;BME280;21106;52.240;20.902;2023-07-24T15:59:27;98790.59;;;29.95;33.06
34893;BME280;21106;52.240;20.902;2023-07-24T16:04:33;98784.84;;;29.94;33.35
34893;BME280;21106;52.240;20.902;2023-07-24T16:09:39;98780.65;;;29.92;33.23
34893;BME280;21106;52.240;20.902;2023-07-24T16:14:47;98773.50;;;29.91;33.17
34893;BME280;21106;52.240;20.902;2023-07-24T16:19:53;98764.58;;;29.93;33.34
34893;BME280;21106;52.240;20.902;2023-07-24T16:25:00;98755.40;;;29.94;33.04
34893;BME280;21106;52.240;20.902;2023-07-24T16:30:06;98749.08;;;29.90;32.76
34893;BME280;21106;52.240;20.902;2023-07-24T16:35:12;98735.55;;;29.83;33.19
34893;BME280;21106;52.240;20.902;2023-07-24T16:40:19;98731.70;;;29.81;33.44
34893;BME280;21106;52.240;20.902;2023-07-24T16:45:25;98723.95;;;29.76;33.85
34893;BME280;21106;52.240;20.902;2023-07-24T16:50:31;98715.23;;;29.70;34.37
34893;BME280;21106;52.240;20.902;2023-07-24T16:55:38;98711.05;;;29.64;34.75
34893;BME280;21106;52.240;20.902;2023-07-24T17:00:44;98703.05;;;29.58;34.47
34893;BME280;21106;52.240;20.902;2023-07-24T17:05:50;98706.09;;;29.54;34.58
34893;BME280;21106;52.240;20.902;2023-07-24T17:10:57;98708.55;;;29.46;35.00
34893;BME280;21106;52.240;20.902;2023-07-24T17:16:03;98702.16;;;29.34;35.66
34893;BME280;21106;52.240;20.902;2023-07-24T17:21:09;98704.14;;;29.24;35.76
34893;BME280;21106;52.240;20.902;2023-07-24T17:26:15;98694.65;;;29.17;35.92
34893;BME280;21106;52.240;20.902;2023-07-24T17:31:22;98687.77;;;29.15;35.55
34893;BME280;21106;52.240;20.902;2023-07-24T17:36:28;98680.63;;;29.12;35.67
34893;BME280;21106;52.240;20.902;2023-07-24T17:41:34;98677.26;;;29.12;35.25
34893;BME280;21106;52.240;20.902;2023-07-24T17:46:40;98673.90;;;29.08;35.04
34893;BME280;21106;52.240;20.902;2023-07-24T17:51:47;98669.80;;;29.03;35.00
34893;BME280;21106;52.240;20.902;2023-07-24T17:56:53;98666.89;;;28.99;34.89
34893;BME280;21106;52.240;20.902;2023-07-24T18:02:00;98661.98;;;28.95;34.41
34893;BME280;21106;52.240;20.902;2023-07-24T18:07:06;98666.55;;;28.90;34.10
34893;BME280;21106;52.240;20.902;2023-07-24T18:12:12;98668.40;;;28.87;33.94
34893;BME280;21106;52.240;20.902;2023-07-24T18:17:19;98671.67;;;28.86;33.93
34893;BME280;21106;52.240;20.902;2023-07-24T18:22:25;98659.89;;;28.82;33.71
34893;BME280;21106;52.240;20.902;2023-07-24T18:27:31;98657.49;;;28.76;33.85
34893;BME280;21106;52.240;20.902;2023-07-24T18:32:52;98653.66;;;28.69;33.74
34893;BME280;21106;52.240;20.902;2023-07-24T18:37:58;98652.14;;;28.64;33.80
34893;BME280;21106;52.240;20.902;2023-07-24T18:43:05;98649.36;;;28.61;34.01
34893;BME280;21106;52.240;20.902;2023-07-24T18:48:11;98653.26;;;28.57;33.99
34893;BME280;21106;52.240;20.902;2023-07-24T18:53:17;98649.56;;;28.51;33.96
34893;BME280;21106;52.240;20.902;2023-07-24T18:58:24;98658.49;;;28.41;33.89
34893;BME280;21106;52.240;20.902;2023-07-24T19:03:30;98660.05;;;28.30;34.18
34893;BME280;21106;52.240;20.902;2023-07-24T19:08:36;98650.99;;;28.20;34.62
34893;BME280;21106;52.240;20.902;2023-07-24T19:13:43;98650.00;;;28.07;35.01
34893;BME280;21106;52.240;20.902;2023-07-24T19:18:49;98640.10;;;28.00;35.18
34893;BME280;21106;52.240;20.902;2023-07-24T19:23:55;98631.95;;;27.94;35.52
34893;BME280;21106;52.240;20.902;2023-07-24T19:29:03;98639.23;;;27.87;35.83
34893;BME280;21106;52.240;20.902;2023-07-24T19:34:09;98645.93;;;27.81;36.00
34893;BME280;21106;52.240;20.902;2023-07-24T19:39:15;98650.42;;;27.71;36.25
34893;BME280;21106;52.240;20.902;2023-07-24T19:44:21;98642.45;;;27.63;36.38
34893;BME280;21106;52.240;20.902;2023-07-24T19:49:28;98649.17;;;27.53;36.63
34893;BME280;21106;52.240;20.902;2023-07-24T19:54:35;98642.63;;;27.45;36.94
34893;BME280;21106;52.240;20.902;2023-07-24T19:59:41;98649.02;;;27.36;37.17
34893;BME280;21106;52.240;20.902;2023-07-24T20:04:48;98647.28;;;27.28;37.25
34893;BME280;21106;52.240;20.902;2023-07-24T20:09:54;98649.50;;;27.20;37.51
34893;BME280;21106;52.240;20.902;2023-07-24T20:15:00;98653.21;;;27.11;37.74
34893;BME280;21106;52.240;20.902;2023-07-24T20:20:07;98647.41;;;27.01;37.84
34893;BME280;21106;52.240;20.902;2023-07-24T20:25:13;98631.39;;;26.92;38.06
34893;BME280;21106;52.240;20.902;2023-07-24T20:30:20;98630.83;;;26.82;38.41
34893;BME280;21106;52.240;20.902;2023-07-24T20:35:29;98636.70;;;26.71;38.66
34893;BME280;21106;52.240;20.902;2023-07-24T20:40:36;98637.17;;;26.60;39.27
34893;BME280;21106;52.240;20.902;2023-07-24T20:45:43;98635.66;;;26.47;39.90
34893;BME280;21106;52.240;20.902;2023-07-24T20:50:49;98632.13;;;26.31;40.71
34893;BME280;21106;52.240;20.902;2023-07-24T20:55:55;98628.73;;;26.21;41.10
34893;BME280;21106;52.240;20.902;2023-07-24T21:01:01;98619.73;;;26.10;41.69
34893;BME280;21106;52.240;20.902;2023-07-24T21:06:08;98605.14;;;26.00;41.93
34893;BME280;21106;52.240;20.902;2023-07-24T21:11:14;98609.50;;;25.91;42.30
34893;BME280;21106;52.240;20.902;2023-07-24T21:16:20;98606.68;;;25.85;42.52
34893;BME280;21106;52.240;20.902;2023-07-24T21:21:26;98598.33;;;25.76;42.78
34893;BME280;21106;52.240;20.902;2023-07-24T21:26:33;98593.11;;;25.69;43.03
34893;BME280;21106;52.240;20.902;2023-07-24T21:31:39;98595.25;;;25.63;43.30
34893;BME280;21106;52.240;20.902;2023-07-24T21:36:45;98604.63;;;25.56;43.49
34893;BME280;21106;52.240;20.902;2023-07-24T21:41:52;98601.61;;;25.53;43.69
34893;BME280;21106;52.240;20.902;2023-07-24T21:46:58;98587.18;;;25.47;44.00
34893;BME280;21106;52.240;20.902;2023-07-24T21:52:04;98585.34;;;25.40;44.10
34893;BME280;21106;52.240;20.902;2023-07-24T21:57:11;98584.89;;;25.34;44.20
34893;BME280;21106;52.240;20.902;2023-07-24T22:02:17;98581.73;;;25.32;44.48
34893;BME280;21106;52.240;20.902;2023-07-24T22:12:36;98572.13;;;25.22;45.18
34893;BME280;21106;52.240;20.902;2023-07-24T22:17:43;98571.28;;;25.17;45.30
34893;BME280;21106;52.240;20.902;2023-07-24T22:22:50;98573.19;;;25.12;45.58
34893;BME280;21106;52.240;20.902;2023-07-24T22:27:56;98571.84;;;25.08;45.73
34893;BME280;21106;52.240;20.902;2023-07-24T22:33:03;98577.36;;;25.06;46.01
34893;BME280;21106;52.240;20.902;2023-07-24T22:38:09;98566.16;;;25.02;46.20
34893;BME280;21106;52.240;20.902;2023-07-24T22:43:15;98575.84;;;24.99;46.22
34893;BME280;21106;52.240;20.902;2023-07-24T22:48:22;98574.27;;;24.97;46.47
34893;BME280;21106;52.240;20.902;2023-07-24T22:53:28;98580.16;;;24.93;46.60
34893;BME280;21106;52.240;20.902;2023-07-24T22:59:19;98583.54;;;24.92;46.73
34893;BME280;21106;52.240;20.902;2023-07-24T23:04:25;98577.86;;;24.87;46.97
34893;BME280;21106;52.240;20.902;2023-07-24T23:09:32;98577.99;;;24.86;47.08
34893;BME280;21106;52.240;20.902;2023-07-24T23:14:40;98563.88;;;24.84;47.35
34893;BME280;21106;52.240;20.902;2023-07-24T23:19:46;98550.86;;;24.83;47.49
34893;BME280;21106;52.240;20.902;2023-07-24T23:24:52;98544.27;;;24.80;47.75
34893;BME280;21106;52.240;20.902;2023-07-24T23:30:21;98536.67;;;24.75;47.83
34893;BME280;21106;52.240;20.902;2023-07-24T23:36:07;98529.66;;;24.71;48.14
34893;BME280;21106;52.240;20.902;2023-07-24T23:41:31;98523.55;;;24.69;48.43
34893;BME280;21106;52.240;20.902;2023-07-24T23:46:37;98518.10;;;24.63;48.64
34893;BME280;21106;52.240;20.902;2023-07-24T23:51:45;98515.23;;;24.59;48.92
34893;BME280;21106;52.240;20.902;2023-07-24T23:56:51;98521.48;;;24.54;48.94
